John D. Leitch — VGWM — position and weather

sailwx.info

Track history (hours):
 
Tides and Currents Weather Stations Pressure Air Temp Water Temp Dewpoint Dewpoint Depression Visibility Wind Speed Wind Dir Waves Ship Positions

John D. Leitch

ex Canadian Century

Last reported at 2017-Dec-22 23:07 UTC. Time now 2018-Feb-23 12:42 UTC.
Position N 45°46' W 083°42'.
Warning: this ship's position is months out of date.

Length 222 m; draft 6.9 m.

Type: Cargo ship. MMSI: 316001701.

Date/timePositionNaut miles runAvg speedWind from/ knotsBaromVisibWave heightAir tempDewpointWater temp
2017-Dec-22 23:07N 45°46' W 083°42'212.3
2017-Dec-22 22:55N 45°44' W 083°40'712.3
2017-Dec-22 22:21N 45°38' W 083°35'512.3
2017-Dec-22 21:55N 45°34' W 083°30'612.4
2017-Dec-22 21:26N 45°29' W 083°25'  
2017-Dec-20 03:05N 45°23' W 083°25'112.3
2017-Dec-20 02:59N 45°24' W 083°26'612.2
2017-Dec-20 02:30N 45°28' W 083°32'612.3
2017-Dec-20 02:00N 45°32' W 083°39'612.3
2017-Dec-20 01:30N 45°36' W 083°45'  
2017-Dec-15 21:02N 45°45' W 083°42'011.6
2017-Dec-15 21:00N 45°45' W 083°42'711.7
2017-Dec-15 20:23N 45°39' W 083°36'511.6
2017-Dec-15 19:56N 45°35' W 083°32'  
Track history (hours):
 
Tides and Currents Weather Stations Pressure Air Temp Water Temp Dewpoint Dewpoint Depression Visibility Wind Speed Wind Dir Waves Ship Positions

John D. Leitch

ex Canadian Century

Last reported at 2017-Dec-22 23:07 UTC. Time now 2018-Feb-23 12:42 UTC.
Position N 45°46' W 083°42'.
Warning: this ship's position is months out of date.

Length 222 m; draft 6.9 m.

Type: Cargo ship. MMSI: 316001701.

Date/timePositionNaut miles runAvg speedWind from/ knotsBaromVisibWave heightAir tempDewpointWater temp
2017-Dec-22 23:07N 45°46' W 083°42'212.3
2017-Dec-22 22:55N 45°44' W 083°40'712.3
2017-Dec-22 22:21N 45°38' W 083°35'512.3
2017-Dec-22 21:55N 45°34' W 083°30'612.4
2017-Dec-22 21:26N 45°29' W 083°25'  
2017-Dec-20 03:05N 45°23' W 083°25'112.3
2017-Dec-20 02:59N 45°24' W 083°26'612.2
2017-Dec-20 02:30N 45°28' W 083°32'612.3
2017-Dec-20 02:00N 45°32' W 083°39'612.3
2017-Dec-20 01:30N 45°36' W 083°45'  
2017-Dec-15 21:02N 45°45' W 083°42'011.6
2017-Dec-15 21:00N 45°45' W 083°42'711.7
2017-Dec-15 20:23N 45°39' W 083°36'511.6
2017-Dec-15 19:56N 45°35' W 083°32'  

Dump ship's entire track history